createdAt,value
2023-05-08T00:00:14.175Z,1.70
2023-05-08T00:02:42.475Z,1.90
2023-05-08T00:05:09.366Z,1.85
2023-05-08T00:07:38.259Z,1.90
2023-05-08T00:10:08.723Z,1.90
2023-05-08T00:12:36.741Z,1.70
2023-05-08T00:15:05.758Z,1.52
2023-05-08T00:17:33.137Z,1.88
2023-05-08T00:19:59.899Z,1.80
2023-05-08T00:22:26.637Z,1.63
2023-05-08T00:24:53.489Z,1.40
2023-05-08T00:27:20.386Z,2.08
2023-05-08T00:29:48.844Z,1.42
2023-05-08T00:32:15.745Z,1.80
2023-05-08T00:34:42.507Z,1.80
2023-05-08T00:37:09.127Z,1.55
2023-05-08T00:39:35.906Z,1.52
2023-05-08T00:42:02.607Z,1.83
2023-05-08T00:44:29.296Z,1.83
2023-05-08T00:46:56.393Z,1.40
2023-05-08T00:49:24.721Z,1.80
2023-05-08T00:51:54.575Z,1.27
2023-05-08T00:54:22.062Z,2.30
2023-05-08T00:56:51.045Z,1.80
2023-05-08T00:59:20.644Z,1.80
2023-05-08T01:01:48.831Z,1.58
2023-05-08T01:04:16.065Z,2.20
2023-05-08T01:06:42.862Z,1.50
2023-05-08T01:09:09.603Z,1.92
2023-05-08T01:12:03.731Z,1.80
2023-05-08T01:14:45.020Z,1.50
2023-05-08T01:17:27.364Z,1.58
2023-05-08T01:20:19.324Z,1.83
2023-05-08T01:23:05.048Z,1.67
2023-05-08T01:26:09.526Z,1.77
2023-05-08T01:28:42.101Z,1.92
2023-05-08T01:31:18.642Z,1.58
2023-05-08T01:33:59.940Z,1.67
2023-05-08T01:36:55.817Z,1.70
2023-05-08T01:39:44.972Z,1.30
2023-05-08T01:42:30.632Z,1.35
2023-05-08T01:45:01.603Z,1.65
2023-05-08T01:47:33.249Z,1.42
2023-05-08T01:50:22.140Z,1.80
2023-05-08T01:52:53.015Z,1.98
2023-05-08T01:55:34.599Z,3.15
2023-05-08T01:58:04.978Z,1.60
2023-05-08T02:00:32.597Z,2.13
2023-05-08T02:03:00.636Z,2.40
2023-05-08T02:05:29.379Z,1.77
2023-05-08T02:07:57.053Z,1.33
2023-05-08T02:10:25.890Z,1.98
2023-05-08T02:12:55.427Z,1.83
2023-05-08T02:15:24.581Z,1.88
2023-05-08T02:17:54.249Z,1.77
2023-05-08T02:20:22.293Z,1.38
2023-05-08T02:22:51.584Z,1.63
2023-05-08T02:25:19.720Z,1.98
2023-05-08T02:27:48.267Z,1.60
2023-05-08T02:30:17.460Z,1.77
2023-05-08T02:32:45.702Z,1.73
2023-05-08T02:35:15.992Z,2.38
2023-05-08T02:37:45.170Z,1.40
2023-05-08T02:40:14.371Z,1.40
2023-05-08T02:42:41.779Z,1.77
2023-05-08T02:45:12.157Z,1.83
2023-05-08T02:48:00.046Z,1.58
2023-05-08T02:50:38.772Z,1.88
2023-05-08T02:53:11.461Z,2.20
2023-05-08T02:56:03.165Z,1.70
2023-05-08T02:58:37.195Z,1.42
2023-05-08T03:01:12.746Z,1.83
2023-05-08T03:03:43.730Z,1.33
2023-05-08T03:06:18.061Z,1.45
2023-05-08T03:08:47.133Z,1.63
2023-05-08T03:11:22.571Z,1.65
2023-05-08T03:16:23.166Z,1.48
2023-05-08T03:18:58.268Z,1.52
2023-05-08T03:21:29.111Z,1.75
2023-05-08T03:23:58.917Z,1.75
2023-05-08T03:26:26.268Z,2.33
2023-05-08T03:28:53.963Z,2.25
2023-05-08T03:31:26.927Z,2.22
2023-05-08T03:33:55.331Z,1.88
2023-05-08T03:36:24.957Z,1.85
2023-05-08T03:38:52.130Z,1.70
2023-05-08T03:41:19.152Z,1.75
2023-05-08T03:43:48.048Z,1.85
2023-05-08T03:46:16.686Z,1.73
2023-05-08T03:48:44.502Z,1.80
2023-05-08T03:51:14.354Z,1.92
2023-05-08T03:53:41.309Z,1.83
2023-05-08T03:56:08.360Z,1.88
2023-05-08T03:58:54.095Z,1.92
2023-05-08T04:01:53.089Z,2.08
2023-05-08T04:04:38.136Z,2.20
2023-05-08T04:07:24.713Z,1.90
2023-05-08T04:10:22.097Z,2.28
2023-05-08T04:13:07.365Z,1.95
2023-05-08T04:15:48.827Z,2.20
2023-05-08T04:18:19.057Z,2.13
2023-05-08T04:20:50.871Z,2.13
2023-05-08T04:23:20.852Z,1.95
2023-05-08T04:25:52.436Z,1.67
2023-05-08T04:28:21.119Z,2.15
2023-05-08T04:30:48.798Z,2.10
2023-05-08T04:33:18.310Z,1.60
2023-05-08T04:35:46.304Z,1.75
2023-05-08T04:38:14.042Z,2.10
2023-05-08T04:40:50.789Z,1.85
2023-05-08T04:43:17.748Z,2.08
2023-05-08T04:45:44.930Z,1.80
2023-05-08T04:48:11.884Z,1.83
2023-05-08T04:50:42.491Z,2.22
2023-05-08T04:53:09.621Z,1.88
2023-05-08T04:55:45.876Z,2.20
2023-05-08T04:58:12.795Z,1.83
2023-05-08T05:00:42.320Z,1.88
2023-05-08T05:03:09.440Z,2.22
2023-05-08T05:05:38.702Z,2.35
2023-05-08T05:08:06.348Z,2.40
2023-05-08T05:10:40.453Z,2.20
2023-05-08T05:13:09.211Z,1.80
2023-05-08T05:15:36.017Z,2.15
2023-05-08T05:18:05.578Z,2.10
2023-05-08T05:20:32.895Z,2.00
2023-05-08T05:23:00.314Z,2.20
2023-05-08T05:25:27.234Z,2.17
2023-05-08T05:27:53.986Z,2.10
2023-05-08T05:30:20.845Z,2.30
2023-05-08T05:32:48.055Z,2.53
2023-05-08T05:35:16.010Z,1.73
2023-05-08T05:37:42.897Z,2.22
2023-05-08T05:40:13.135Z,2.38
2023-05-08T05:42:44.178Z,1.92
2023-05-08T05:45:11.339Z,2.20
2023-05-08T05:47:38.999Z,2.15
2023-05-08T05:50:06.322Z,2.00
2023-05-08T05:52:33.456Z,2.40
2023-05-08T05:55:00.376Z,1.90
2023-05-08T05:57:27.370Z,2.00
2023-05-08T05:59:55.051Z,1.98
2023-05-08T06:02:22.461Z,2.13
2023-05-08T06:04:51.955Z,2.25
2023-05-08T06:07:21.171Z,2.42
2023-05-08T06:09:48.199Z,2.10
2023-05-08T06:12:15.150Z,2.63
2023-05-08T06:14:41.961Z,2.00
2023-05-08T06:17:09.203Z,2.10
2023-05-08T06:19:36.687Z,2.20
2023-05-08T06:22:03.964Z,2.53
2023-05-08T06:24:30.980Z,2.42
2023-05-08T06:26:57.941Z,1.90
2023-05-08T06:29:24.589Z,2.50
2023-05-08T06:31:51.326Z,2.08
2023-05-08T06:34:17.971Z,2.80
2023-05-08T06:36:44.620Z,2.20
2023-05-08T06:39:11.472Z,1.75
2023-05-08T06:41:38.401Z,2.40
2023-05-08T06:44:05.233Z,2.25
2023-05-08T06:46:32.102Z,1.95
2023-05-08T06:49:01.534Z,2.42
2023-05-08T06:51:31.543Z,2.03
2023-05-08T06:54:00.625Z,2.00
2023-05-08T06:56:27.881Z,2.35
2023-05-08T06:59:04.887Z,2.58
2023-05-08T07:01:37.842Z,1.95
2023-05-08T07:04:05.400Z,2.28
2023-05-08T07:06:32.022Z,2.38
2023-05-08T07:08:58.741Z,2.08
2023-05-08T07:11:25.631Z,1.98
2023-05-08T07:13:52.455Z,2.33
2023-05-08T07:16:19.238Z,2.15
2023-05-08T07:18:46.166Z,2.28
2023-05-08T07:21:13.288Z,2.60
2023-05-08T07:23:39.901Z,2.33
2023-05-08T07:26:06.561Z,2.47
2023-05-08T07:28:33.207Z,2.50
2023-05-08T07:30:59.973Z,2.35
2023-05-08T07:33:26.855Z,2.20
2023-05-08T07:35:53.711Z,2.38
2023-05-08T07:38:20.294Z,2.38
2023-05-08T07:40:48.994Z,2.40
2023-05-08T07:43:15.848Z,2.47
2023-05-08T07:45:42.582Z,2.42
2023-05-08T07:48:09.704Z,2.72
2023-05-08T07:50:36.612Z,2.58
2023-05-08T07:53:03.313Z,2.55
2023-05-08T07:55:31.060Z,3.13
2023-05-08T07:57:59.454Z,1.95
2023-05-08T08:00:29.864Z,2.20
2023-05-08T08:02:57.530Z,2.10
2023-05-08T08:05:24.699Z,2.08
2023-05-08T08:07:53.553Z,2.25
2023-05-08T08:10:20.414Z,2.05
2023-05-08T08:12:47.396Z,2.67
2023-05-08T08:15:14.452Z,2.15
2023-05-08T08:17:41.418Z,2.30
2023-05-08T08:20:08.828Z,2.20
2023-05-08T08:22:37.742Z,2.50
2023-05-08T08:25:04.726Z,2.63
2023-05-08T08:27:31.603Z,2.88
2023-05-08T08:30:12.796Z,2.45
2023-05-08T08:32:52.043Z,2.38
2023-05-08T08:37:46.129Z,2.13
2023-05-08T08:40:13.142Z,2.42
2023-05-08T08:42:40.319Z,2.03
2023-05-08T08:45:07.463Z,2.13
2023-05-08T08:47:41.460Z,2.70
2023-05-08T08:50:10.702Z,2.55
2023-05-08T08:52:54.188Z,2.22
2023-05-08T08:55:23.451Z,1.80
2023-05-08T08:58:02.092Z,2.13
2023-05-08T09:00:32.811Z,1.85
2023-05-08T09:03:00.152Z,1.85
2023-05-08T09:05:27.392Z,1.90
2023-05-08T09:07:55.728Z,2.20
2023-05-08T09:10:24.605Z,2.47
2023-05-08T09:12:51.498Z,2.15
2023-05-08T09:15:18.485Z,2.22
2023-05-08T09:17:45.347Z,2.22
2023-05-08T09:20:15.334Z,1.90
2023-05-08T09:22:43.579Z,1.98
2023-05-08T09:25:10.860Z,1.70
2023-05-08T09:27:39.513Z,1.75
2023-05-08T09:30:14.917Z,2.22
2023-05-08T09:32:46.869Z,2.13
2023-05-08T09:35:18.343Z,2.40
2023-05-08T09:37:48.043Z,2.15
2023-05-08T09:40:17.687Z,2.00
2023-05-08T09:42:45.228Z,1.95
2023-05-08T09:45:39.082Z,2.05
2023-05-08T09:48:09.199Z,1.85
2023-05-08T09:50:38.919Z,1.80
2023-05-08T09:53:07.897Z,2.42
2023-05-08T09:55:47.388Z,1.92
2023-05-08T09:58:14.316Z,1.75
2023-05-08T10:00:44.904Z,2.33
2023-05-08T10:03:12.185Z,1.60
2023-05-08T10:05:48.687Z,1.83
2023-05-08T10:08:24.995Z,2.38
2023-05-08T10:10:53.212Z,2.20
2023-05-08T10:13:22.629Z,1.75
2023-05-08T10:15:54.544Z,1.88
2023-05-08T10:18:26.497Z,1.73
2023-05-08T10:20:55.866Z,2.67
2023-05-08T10:23:22.755Z,2.58
2023-05-08T10:25:55.941Z,1.88
2023-05-08T10:28:28.403Z,1.48
2023-05-08T10:31:03.970Z,1.80
2023-05-08T10:33:31.931Z,1.90
2023-05-08T10:35:59.836Z,1.90
2023-05-08T10:38:27.456Z,1.90
2023-05-08T10:40:58.016Z,1.80
2023-05-08T10:43:26.243Z,1.90
2023-05-08T10:45:55.513Z,2.10
2023-05-08T10:48:56.212Z,1.63
2023-05-08T10:51:43.039Z,1.60
2023-05-08T10:54:19.327Z,1.80
2023-05-08T10:56:46.079Z,1.98
2023-05-08T10:59:19.831Z,1.80
2023-05-08T11:01:50.224Z,2.00
2023-05-08T11:04:24.046Z,1.77
2023-05-08T11:06:55.085Z,2.08
2023-05-08T11:09:45.666Z,2.50
2023-05-08T11:12:24.042Z,2.10
2023-05-08T11:15:11.437Z,2.30
2023-05-08T11:17:39.540Z,1.73
2023-05-08T11:20:06.987Z,2.05
2023-05-08T11:22:38.480Z,1.88
2023-05-08T11:25:13.149Z,2.20
2023-05-08T11:27:51.399Z,2.05
2023-05-08T11:30:26.994Z,2.25
2023-05-08T11:33:06.599Z,2.20
2023-05-08T11:35:48.693Z,2.00
2023-05-08T11:38:38.314Z,1.90
2023-05-08T11:41:12.316Z,2.03
2023-05-08T11:43:57.814Z,2.53
2023-05-08T11:46:37.202Z,2.10
2023-05-08T11:49:23.845Z,1.95
2023-05-08T11:51:58.235Z,2.10
2023-05-08T11:54:34.823Z,2.33
2023-05-08T11:57:03.814Z,2.38
2023-05-08T11:59:35.592Z,2.03
2023-05-08T12:02:08.746Z,2.08
2023-05-08T12:04:46.911Z,1.92
2023-05-08T12:07:14.285Z,2.30
2023-05-08T12:09:41.252Z,2.58
2023-05-08T12:12:08.079Z,1.80
2023-05-08T12:14:34.870Z,2.08
2023-05-08T12:17:02.933Z,1.60
2023-05-08T12:19:29.842Z,1.88
2023-05-08T12:21:58.775Z,2.45
2023-05-08T12:24:27.834Z,2.10
2023-05-08T12:26:57.907Z,2.47
2023-05-08T12:29:25.880Z,2.17
2023-05-08T12:31:54.225Z,2.20
2023-05-08T12:34:21.889Z,2.00
2023-05-08T12:36:48.726Z,1.80
2023-05-08T12:39:18.015Z,1.85
2023-05-08T12:41:49.803Z,1.80
2023-05-08T12:44:21.600Z,1.95
2023-05-08T12:47:01.423Z,1.88
2023-05-08T12:49:38.172Z,1.85
2023-05-08T12:52:12.453Z,1.60
2023-05-08T12:54:49.484Z,1.80
2023-05-08T12:57:21.423Z,1.92
2023-05-08T12:59:53.513Z,1.83
2023-05-08T13:02:26.525Z,1.63
2023-05-08T13:05:00.034Z,2.17
2023-05-08T13:07:32.730Z,1.65
2023-05-08T13:10:08.642Z,1.50
2023-05-08T13:12:40.907Z,1.52
2023-05-08T13:15:08.566Z,1.63
2023-05-08T13:17:39.985Z,1.83
2023-05-08T13:20:07.677Z,1.52
2023-05-08T13:22:34.653Z,1.70
2023-05-08T13:25:03.717Z,1.50
2023-05-08T13:27:30.879Z,1.50
2023-05-08T13:30:00.044Z,1.40
2023-05-08T13:32:26.914Z,1.25
2023-05-08T13:34:58.814Z,1.42
2023-05-08T13:37:31.413Z,1.30
2023-05-08T13:40:13.246Z,1.48
2023-05-08T13:42:40.773Z,2.53
2023-05-08T13:45:19.492Z,1.77
2023-05-08T13:47:47.825Z,1.77
2023-05-08T13:50:27.165Z,1.45
2023-05-08T13:52:55.187Z,1.63
2023-05-08T13:55:26.910Z,1.85
2023-05-08T13:57:54.151Z,1.75
2023-05-08T14:00:34.780Z,1.42
2023-05-08T14:03:19.891Z,1.70
2023-05-08T14:05:57.004Z,1.50
2023-05-08T14:08:24.037Z,1.90
2023-05-08T14:10:51.945Z,2.13
2023-05-08T14:13:27.014Z,1.73
2023-05-08T14:15:56.639Z,1.92
2023-05-08T14:18:23.574Z,1.63
2023-05-08T14:20:57.469Z,1.88
2023-05-08T14:23:24.838Z,1.80
2023-05-08T14:25:51.791Z,1.75
2023-05-08T14:28:18.814Z,1.90
2023-05-08T14:30:48.662Z,2.25
2023-05-08T14:33:19.466Z,1.85
2023-05-08T14:35:48.346Z,1.55
2023-05-08T14:38:15.304Z,1.83
2023-05-08T14:40:42.082Z,1.98
2023-05-08T14:43:08.839Z,1.75
2023-05-08T14:45:36.177Z,1.83
2023-05-08T14:48:13.161Z,1.77
2023-05-08T14:50:41.430Z,1.83
2023-05-08T14:53:08.694Z,2.20
2023-05-08T14:55:36.184Z,1.90
2023-05-08T14:58:05.880Z,1.90
2023-05-08T15:00:37.983Z,1.67
2023-05-08T15:03:07.065Z,1.55
2023-05-08T15:05:38.044Z,2.00
2023-05-08T15:09:12.773Z,1.70
2023-05-08T15:11:13.911Z,1.40
2023-05-08T15:13:41.335Z,1.63
2023-05-08T15:16:11.407Z,1.67
2023-05-08T15:19:02.717Z,1.52
2023-05-08T15:21:29.584Z,1.80
2023-05-08T15:23:56.567Z,1.60
2023-05-08T15:26:24.763Z,1.80
2023-05-08T15:28:51.504Z,2.03
2023-05-08T15:31:18.649Z,1.70
2023-05-08T15:33:45.937Z,1.60
2023-05-08T15:36:13.599Z,1.73
2023-05-08T15:38:44.266Z,1.50
2023-05-08T15:41:15.669Z,1.83
2023-05-08T15:43:46.850Z,1.52
2023-05-08T15:46:13.960Z,1.90
2023-05-08T15:48:41.115Z,1.63
2023-05-08T15:51:08.228Z,1.70
2023-05-08T15:53:35.536Z,1.42
2023-05-08T15:56:03.184Z,1.52
2023-05-08T15:58:29.898Z,2.17
2023-05-08T16:00:57.745Z,1.50
2023-05-08T16:03:27.103Z,1.70
2023-05-08T16:05:54.306Z,1.85
2023-05-08T16:08:21.077Z,2.00
2023-05-08T16:10:49.867Z,1.70
2023-05-08T16:13:16.674Z,1.50
2023-05-08T16:15:43.782Z,1.67
2023-05-08T16:18:12.803Z,2.00
2023-05-08T16:20:42.847Z,1.92
2023-05-08T16:23:09.688Z,1.73
2023-05-08T16:25:39.293Z,1.90
2023-05-08T16:28:06.807Z,1.58
2023-05-08T16:30:33.798Z,1.45
2023-05-08T16:33:03.361Z,1.55
2023-05-08T16:35:34.124Z,1.70
2023-05-08T16:38:05.526Z,1.48
2023-05-08T16:40:32.429Z,1.60
2023-05-08T16:42:59.446Z,1.95
2023-05-08T16:45:26.815Z,1.65
2023-05-08T16:47:53.956Z,1.35
2023-05-08T16:50:21.154Z,1.58
2023-05-08T16:52:48.096Z,1.35
2023-05-08T16:55:17.322Z,1.60
2023-05-08T16:57:46.580Z,1.77
2023-05-08T17:00:14.333Z,1.83
2023-05-08T17:02:43.705Z,1.70
2023-05-08T17:05:10.616Z,1.38
2023-05-08T17:07:37.662Z,1.25
2023-05-08T17:10:17.304Z,1.48
2023-05-08T17:12:44.232Z,1.77
2023-05-08T17:15:13.656Z,1.50
2023-05-08T17:17:40.774Z,1.90
2023-05-08T17:20:11.778Z,2.10
2023-05-08T17:22:39.071Z,1.70
2023-05-08T17:25:06.275Z,1.65
2023-05-08T17:27:34.889Z,2.00
2023-05-08T17:30:09.547Z,1.90
2023-05-08T17:32:54.530Z,1.80
2023-05-08T17:35:27.719Z,1.73
2023-05-08T17:38:00.241Z,1.40
2023-05-08T17:40:32.288Z,1.73
2023-05-08T17:43:25.721Z,1.80
2023-05-08T17:46:02.867Z,1.92
2023-05-08T17:48:36.106Z,1.40
2023-05-08T17:51:31.952Z,1.95
2023-05-08T17:54:08.722Z,1.70
2023-05-08T17:56:45.633Z,1.75
2023-05-08T17:59:13.651Z,2.00
2023-05-08T18:01:41.705Z,1.80
2023-05-08T18:04:08.988Z,2.08
2023-05-08T18:06:37.826Z,2.22
2023-05-08T18:09:04.583Z,1.88
2023-05-08T18:11:31.217Z,1.98
2023-05-08T18:13:58.262Z,2.20
2023-05-08T18:16:25.407Z,1.77
2023-05-08T18:18:52.579Z,2.17
2023-05-08T18:21:21.636Z,2.25
2023-05-08T18:23:51.475Z,2.63
2023-05-08T18:26:28.282Z,2.38
2023-05-08T18:28:58.966Z,2.13
2023-05-08T18:31:28.406Z,2.15
2023-05-08T18:34:00.687Z,2.13
2023-05-08T18:36:29.882Z,2.10
2023-05-08T18:39:04.735Z,2.30
2023-05-08T18:41:47.950Z,2.35
2023-05-08T18:45:35.990Z,2.40
2023-05-08T18:48:45.117Z,2.70
2023-05-08T18:51:18.320Z,2.20
2023-05-08T18:53:46.753Z,2.63
2023-05-08T18:56:13.859Z,3.00
2023-05-08T18:58:44.055Z,2.60
2023-05-08T19:01:17.516Z,2.47
2023-05-08T19:03:48.085Z,2.95
2023-05-08T19:06:18.122Z,2.40
2023-05-08T19:08:44.994Z,2.20
2023-05-08T19:11:12.085Z,2.55
2023-05-08T19:13:39.330Z,2.28
2023-05-08T19:16:06.438Z,2.58
2023-05-08T19:18:36.319Z,2.40
2023-05-08T19:21:03.355Z,2.20
2023-05-08T19:23:39.830Z,2.00
2023-05-08T19:26:10.107Z,2.30
2023-05-08T19:28:37.250Z,2.20
2023-05-08T19:31:04.201Z,2.33
2023-05-08T19:33:33.073Z,2.45
2023-05-08T19:36:01.318Z,2.55
2023-05-08T19:38:30.765Z,3.25
2023-05-08T19:41:18.001Z,2.60
2023-05-08T19:43:50.151Z,2.70
2023-05-08T19:46:20.703Z,2.40
2023-05-08T19:48:49.713Z,2.28
2023-05-08T19:51:20.641Z,2.17
2023-05-08T19:53:47.421Z,2.42
2023-05-08T19:56:19.067Z,2.45
2023-05-08T19:58:46.490Z,2.42
2023-05-08T20:01:15.901Z,2.58
2023-05-08T20:03:47.449Z,2.40
2023-05-08T20:06:14.648Z,2.05
2023-05-08T20:08:42.170Z,2.78
2023-05-08T20:11:11.812Z,2.30
2023-05-08T20:13:50.703Z,2.25
2023-05-08T20:16:17.763Z,2.47
2023-05-08T20:18:44.913Z,2.10
2023-05-08T20:21:11.955Z,2.85
2023-05-08T20:23:41.425Z,2.35
2023-05-08T20:26:08.686Z,2.03
2023-05-08T20:28:35.915Z,2.50
2023-05-08T20:31:04.102Z,2.42
2023-05-08T20:33:55.088Z,2.50
2023-05-08T20:37:13.617Z,2.30
2023-05-08T20:43:46.892Z,2.53
2023-05-08T20:46:59.530Z,2.63
2023-05-08T20:50:03.252Z,2.17
2023-05-08T20:53:03.726Z,2.67
2023-05-08T20:56:01.348Z,2.67
2023-05-08T20:58:35.487Z,3.10
2023-05-08T21:01:14.823Z,2.78
2023-05-08T21:04:03.435Z,2.78
2023-05-08T21:06:41.964Z,2.40
2023-05-08T21:09:31.187Z,2.83
2023-05-08T21:12:02.909Z,3.22
2023-05-08T21:14:46.665Z,2.50
2023-05-08T21:17:21.876Z,2.75
2023-05-08T21:19:59.082Z,2.65
2023-05-08T21:22:28.362Z,2.38
2023-05-08T21:25:00.694Z,2.63
2023-05-08T21:27:32.093Z,2.30
2023-05-08T21:30:09.606Z,2.50
2023-05-08T21:32:36.657Z,2.53
2023-05-08T21:35:32.156Z,2.53
2023-05-08T21:38:02.417Z,2.63
2023-05-08T21:40:29.414Z,2.55
2023-05-08T21:43:00.183Z,3.45
2023-05-08T21:45:33.257Z,2.47
2023-05-08T21:48:02.901Z,2.75
2023-05-08T21:50:33.139Z,2.08
2023-05-08T21:53:03.006Z,2.10
2023-05-08T21:55:39.833Z,2.22
2023-05-08T21:58:10.440Z,2.55
2023-05-08T22:00:38.686Z,2.40
2023-05-08T22:03:09.885Z,2.33
2023-05-08T22:05:41.310Z,2.50
2023-05-08T22:08:16.809Z,2.25
2023-05-08T22:10:46.746Z,3.33
2023-05-08T22:13:39.156Z,2.60
2023-05-08T22:16:08.700Z,2.58
2023-05-08T22:18:40.173Z,2.53
2023-05-08T22:21:23.921Z,2.55
2023-05-08T22:23:52.956Z,2.35
2023-05-08T22:26:30.279Z,2.85
2023-05-08T22:29:06.649Z,2.25
2023-05-08T22:31:38.207Z,2.40
2023-05-08T22:34:15.483Z,2.45
2023-05-08T22:36:56.252Z,2.72
2023-05-08T22:39:27.568Z,2.55
2023-05-08T22:41:54.850Z,2.25
2023-05-08T22:44:27.027Z,2.40
2023-05-08T22:47:08.713Z,2.63
2023-05-08T22:49:36.479Z,2.20
2023-05-08T22:52:07.343Z,2.55
2023-05-08T22:54:37.336Z,2.85
2023-05-08T22:57:04.368Z,2.55
2023-05-08T22:59:31.316Z,2.17
2023-05-08T23:01:58.571Z,2.30
2023-05-08T23:04:28.325Z,2.38
2023-05-08T23:06:55.574Z,2.28
2023-05-08T23:09:23.009Z,3.28
2023-05-08T23:11:52.488Z,2.35
2023-05-08T23:14:22.937Z,2.67
2023-05-08T23:16:52.861Z,2.78
2023-05-08T23:19:19.742Z,2.75
2023-05-08T23:21:49.934Z,2.35
2023-05-08T23:24:19.977Z,2.88
2023-05-08T23:26:49.815Z,2.33
2023-05-08T23:29:16.954Z,2.85
2023-05-08T23:31:45.900Z,2.72
2023-05-08T23:34:12.828Z,2.60
2023-05-08T23:36:40.823Z,3.00
2023-05-08T23:39:08.060Z,2.50
2023-05-08T23:41:34.962Z,2.67
2023-05-08T23:44:04.440Z,2.67
2023-05-08T23:46:33.571Z,2.38
2023-05-08T23:49:06.193Z,2.63
2023-05-08T23:51:33.228Z,2.75
2023-05-08T23:54:02.548Z,2.53
2023-05-08T23:56:33.050Z,2.22
2023-05-08T23:59:03.288Z,2.83
